Time;durP1;ratioP1;P1;durP2;ratioP2;P2;SDS_P1;SDS_P2;PMS_P1;PMS_P2;Temp;Humidity;BMP_temperature;BMP_pressure;BME280_temperature;BME280_humidity;BME280_pressure;Samples;Min_cycle;Max_cycle;Signal;HPM_P1;HPM_P2
2021/12/15 00:02:31;;;;;;;266.92;92.00;;;;;;;;;;6201602;28;20132;-60
2021/12/15 00:05:33;;;;;;;250.80;82.03;;;;;;;;;;6207112;28;20041;-60
2021/12/15 00:08:33;;;;;;;275.00;85.73;;;;;;;;;;6199639;28;20096;-60
2021/12/15 00:11:37;;;;;;;258.38;89.70;;;;;;;;;;6206535;28;20335;-61
2021/12/15 00:14:37;;;;;;;279.00;88.40;;;;;;;;;;6197962;28;20046;-60
2021/12/15 00:17:38;;;;;;;277.83;83.00;;;;;;;;;;6204462;28;20524;-60
2021/12/15 00:20:40;;;;;;;266.80;87.60;;;;;;;;;;6201217;28;20058;-60
2021/12/15 00:23:42;;;;;;;302.67;91.45;;;;;;;;;;6199301;28;20089;-60
2021/12/15 00:26:43;;;;;;;285.73;85.93;;;;;;;;;;6203858;28;20084;-60
2021/12/15 00:29:43;;;;;;;277.02;88.55;;;;;;;;;;6195446;28;20054;-60
2021/12/15 00:32:44;;;;;;;277.98;89.25;;;;;;;;;;6202581;28;20128;-60
2021/12/15 00:35:46;;;;;;;269.38;83.78;;;;;;;;;;6199256;28;20088;-60
2021/12/15 00:38:46;;;;;;;249.52;86.07;;;;;;;;;;6207433;28;20050;-60
2021/12/15 00:41:48;;;;;;;270.23;86.50;;;;;;;;;;6202296;28;20246;-60
2021/12/15 00:44:49;;;;;;;258.20;88.60;;;;;;;;;;6201806;28;20115;-60
2021/12/15 00:47:50;;;;;;;266.40;88.93;;;;;;;;;;6203843;28;20490;-60
2021/12/15 00:50:51;;;;;;;236.00;84.47;;;;;;;;;;6199309;28;20054;-61
2021/12/15 00:53:52;;;;;;;248.77;85.28;;;;;;;;;;6200225;28;20559;-60
2021/12/15 00:56:55;;;;;;;282.05;87.30;;;;;;;;;;6200121;28;20054;-61
2021/12/15 00:59:55;;;;;;;269.60;85.82;;;;;;;;;;6198491;28;20109;-60
2021/12/15 01:02:57;;;;;;;229.15;81.35;;;;;;;;;;6204379;28;20054;-60
2021/12/15 01:06:05;;;;;;;229.57;78.32;;;;;;;;;;6196334;28;20055;-60
2021/12/15 01:09:16;;;;;;;208.30;76.88;;;;;;;;;;6200173;28;20042;-60
2021/12/15 01:21:51;;;;;;;254.65;81.07;;;;;;;;;;6203310;28;20050;-60
2021/12/15 01:24:56;;;;;;;213.82;77.32;;;;;;;;;;6215999;28;20152;-61
2021/12/15 01:27:57;;;;;;;218.05;72.25;;;;;;;;;;6215906;28;20050;-60
2021/12/15 01:30:59;;;;;;;243.55;80.65;;;;;;;;;;6206238;28;20088;-61
2021/12/15 01:34:00;;;;;;;285.23;84.68;;;;;;;;;;6199407;28;20130;-60
2021/12/15 01:37:00;;;;;;;334.38;84.40;;;;;;;;;;6205548;28;20074;-60
2021/12/15 01:40:03;;;;;;;262.05;83.43;;;;;;;;;;6196866;28;20053;-61
2021/12/15 01:43:33;;;;;;;271.17;82.47;;;;;;;;;;6201822;28;20082;-60
2021/12/15 01:46:55;;;;;;;278.33;81.35;;;;;;;;;;6199352;28;20140;-60
2021/12/15 01:49:56;;;;;;;305.52;86.90;;;;;;;;;;6203740;28;20054;-61
2021/12/15 01:52:57;;;;;;;242.63;79.00;;;;;;;;;;6206134;28;20046;-60
2021/12/15 01:55:59;;;;;;;292.25;84.93;;;;;;;;;;6203884;28;20062;-60
2021/12/15 01:59:00;;;;;;;275.35;81.50;;;;;;;;;;6211008;28;20057;-60
2021/12/15 02:02:02;;;;;;;229.13;77.53;;;;;;;;;;6202911;28;20496;-61
2021/12/15 02:05:03;;;;;;;265.77;80.63;;;;;;;;;;6207511;28;20050;-60
2021/12/15 02:08:06;;;;;;;232.68;79.93;;;;;;;;;;6201408;28;20141;-60
2021/12/15 02:11:07;;;;;;;314.48;86.28;;;;;;;;;;6201013;28;20056;-60
2021/12/15 02:14:08;;;;;;;344.83;86.85;;;;;;;;;;6205214;28;20625;-60
2021/12/15 02:17:09;;;;;;;243.52;79.15;;;;;;;;;;6209369;28;20506;-61
2021/12/15 02:20:12;;;;;;;262.63;81.18;;;;;;;;;;6206536;28;20061;-60
2021/12/15 02:23:28;;;;;;;253.70;83.18;;;;;;;;;;6203207;28;20064;-60
2021/12/15 02:26:37;;;;;;;271.05;85.32;;;;;;;;;;6206201;28;20517;-60
2021/12/15 02:29:41;;;;;;;290.77;86.95;;;;;;;;;;6209336;28;20058;-60
2021/12/15 02:39:21;;;;;;;240.52;80.88;;;;;;;;;;6204648;28;20456;-60
2021/12/15 02:42:26;;;;;;;264.00;81.00;;;;;;;;;;6201751;28;20103;-60
2021/12/15 02:45:27;;;;;;;274.52;83.68;;;;;;;;;;6199068;28;20074;-60
2021/12/15 02:48:28;;;;;;;260.58;83.78;;;;;;;;;;6208151;28;20527;-60
2021/12/15 02:51:30;;;;;;;213.73;77.22;;;;;;;;;;6202202;28;20417;-60
2021/12/15 02:54:30;;;;;;;217.38;72.57;;;;;;;;;;6194051;28;20054;-62
2021/12/15 02:57:32;;;;;;;219.63;73.70;;;;;;;;;;6204332;28;20045;-61
2021/12/15 03:00:47;;;;;;;232.82;76.30;;;;;;;;;;6203670;28;20043;-60
2021/12/15 03:04:09;;;;;;;204.57;73.68;;;;;;;;;;6200064;28;20603;-60
2021/12/15 03:07:18;;;;;;;315.73;81.65;;;;;;;;;;6202480;28;20054;-60
2021/12/15 03:16:59;;;;;;;294.67;78.40;;;;;;;;;;6203222;28;20042;-60
2021/12/15 03:20:00;;;;;;;265.33;78.97;;;;;;;;;;6202768;28;20050;-60
2021/12/15 03:23:01;;;;;;;277.52;77.60;;;;;;;;;;6202570;28;20058;-60
2021/12/15 03:26:03;;;;;;;214.68;74.82;;;;;;;;;;6204270;28;20050;-60
2021/12/15 03:33:28;;;;;;;208.25;72.88;;;;;;;;;;6205529;28;20029;-60
2021/12/15 03:36:11;;;;;;;194.10;75.30;;;;;;;;;;6203004;28;20077;-60
2021/12/15 03:39:11;;;;;;;205.55;74.72;;;;;;;;;;6199390;28;20092;-60
2021/12/15 03:42:16;;;;;;;181.13;73.10;;;;;;;;;;6201079;28;20525;-60
2021/12/15 03:45:26;;;;;;;195.90;75.05;;;;;;;;;;6206516;28;20046;-61
2021/12/15 03:48:31;;;;;;;191.98;74.35;;;;;;;;;;6201142;28;20069;-61
2021/12/15 03:51:32;;;;;;;203.57;72.18;;;;;;;;;;6203552;28;20053;-61
2021/12/15 03:54:33;;;;;;;197.82;73.07;;;;;;;;;;6204040;28;20133;-60
2021/12/15 03:57:34;;;;;;;206.85;69.72;;;;;;;;;;6204548;28;20517;-60
2021/12/15 04:00:36;;;;;;;174.13;69.40;;;;;;;;;;6202063;28;20093;-60
2021/12/15 04:03:40;;;;;;;184.50;70.85;;;;;;;;;;6199380;28;20173;-60
2021/12/15 04:06:41;;;;;;;159.95;67.15;;;;;;;;;;6197756;28;20515;-61
2021/12/15 04:09:43;;;;;;;192.48;71.90;;;;;;;;;;6202320;28;20046;-61
2021/12/15 04:12:45;;;;;;;200.07;67.80;;;;;;;;;;6201997;28;20155;-61
2021/12/15 04:16:05;;;;;;;186.70;67.87;;;;;;;;;;6200690;28;20348;-60
2021/12/15 04:19:09;;;;;;;206.20;70.05;;;;;;;;;;6199731;28;20038;-60
2021/12/15 04:22:09;;;;;;;196.52;66.03;;;;;;;;;;6197949;28;20053;-60
2021/12/15 04:25:14;;;;;;;182.82;67.22;;;;;;;;;;6199558;28;20058;-60
2021/12/15 04:28:19;;;;;;;157.18;63.90;;;;;;;;;;6201432;28;20500;-60
2021/12/15 04:31:26;;;;;;;158.88;65.28;;;;;;;;;;6208130;28;20050;-60
2021/12/15 04:34:27;;;;;;;163.05;63.65;;;;;;;;;;6195078;28;20141;-60
2021/12/15 04:37:28;;;;;;;166.52;67.80;;;;;;;;;;6201234;28;20072;-61
2021/12/15 04:40:29;;;;;;;178.27;72.95;;;;;;;;;;6202261;28;20042;-60
2021/12/15 04:43:33;;;;;;;188.90;72.95;;;;;;;;;;6194540;28;20053;-60
2021/12/15 04:46:37;;;;;;;180.13;75.82;;;;;;;;;;6202888;28;20513;-60
2021/12/15 04:49:51;;;;;;;186.82;72.00;;;;;;;;;;6210038;28;20050;-60
2021/12/15 04:52:52;;;;;;;163.23;65.13;;;;;;;;;;6201779;28;20042;-60
2021/12/15 04:55:53;;;;;;;218.00;75.40;;;;;;;;;;6200103;28;20042;-60
2021/12/15 04:58:55;;;;;;;175.40;66.47;;;;;;;;;;6201888;28;20054;-60
2021/12/15 05:01:57;;;;;;;166.25;65.80;;;;;;;;;;6205956;28;20108;-60
2021/12/15 05:04:58;;;;;;;171.27;67.22;;;;;;;;;;6204176;28;20073;-61
2021/12/15 05:07:59;;;;;;;213.93;71.20;;;;;;;;;;6199532;28;20411;-60
2021/12/15 05:11:00;;;;;;;204.00;73.00;;;;;;;;;;6201701;28;20049;-60
2021/12/15 05:14:02;;;;;;;208.57;72.47;;;;;;;;;;6200311;28;20100;-60
2021/12/15 05:17:03;;;;;;;186.82;72.10;;;;;;;;;;6206709;28;20584;-60
2021/12/15 05:20:08;;;;;;;192.13;72.67;;;;;;;;;;6208797;28;20050;-60
2021/12/15 05:23:11;;;;;;;204.57;75.53;;;;;;;;;;6213697;28;20061;-65
2021/12/15 05:26:12;;;;;;;191.85;73.30;;;;;;;;;;6209289;28;20448;-61
2021/12/15 05:29:13;;;;;;;187.57;72.00;;;;;;;;;;6218013;28;20061;-60
2021/12/15 05:32:18;;;;;;;178.80;69.78;;;;;;;;;;6212676;28;20050;-61
2021/12/15 05:35:23;;;;;;;168.90;65.60;;;;;;;;;;6212313;28;20046;-60
2021/12/15 05:38:25;;;;;;;149.82;60.90;;;;;;;;;;6201957;28;20054;-60
2021/12/15 05:41:26;;;;;;;143.50;59.00;;;;;;;;;;6209737;28;20157;-60
2021/12/15 05:44:28;;;;;;;148.85;61.83;;;;;;;;;;6204457;28;20387;-60
2021/12/15 05:47:28;;;;;;;160.85;61.08;;;;;;;;;;6202386;28;20069;-60
2021/12/15 05:50:30;;;;;;;153.73;61.70;;;;;;;;;;6203326;28;20092;-61
2021/12/15 05:53:31;;;;;;;148.67;60.60;;;;;;;;;;6208595;28;20136;-63
2021/12/15 05:56:32;;;;;;;156.75;60.67;;;;;;;;;;6207138;28;21210;-61
2021/12/15 05:59:34;;;;;;;162.85;62.05;;;;;;;;;;6198655;28;20050;-62
2021/12/15 06:02:34;;;;;;;163.73;60.33;;;;;;;;;;6206187;28;20493;-65
2021/12/15 06:05:36;;;;;;;175.52;58.63;;;;;;;;;;6204668;28;20049;-60
2021/12/15 06:08:37;;;;;;;198.20;67.82;;;;;;;;;;6208230;28;20054;-61
2021/12/15 06:11:40;;;;;;;195.05;68.35;;;;;;;;;;6208097;28;21097;-63
2021/12/15 06:14:42;;;;;;;172.10;67.50;;;;;;;;;;6206741;28;20069;-63
2021/12/15 06:17:43;;;;;;;175.63;63.22;;;;;;;;;;6205292;28;20771;-64
2021/12/15 06:20:46;;;;;;;164.07;63.60;;;;;;;;;;6206277;28;20045;-64
2021/12/15 06:23:48;;;;;;;154.63;62.33;;;;;;;;;;6207070;28;20054;-63
2021/12/15 06:26:50;;;;;;;158.60;64.30;;;;;;;;;;6203036;28;20077;-60
2021/12/15 06:29:52;;;;;;;162.65;63.22;;;;;;;;;;6205068;28;20049;-60
2021/12/15 06:32:53;;;;;;;148.63;61.22;;;;;;;;;;6215985;28;20054;-60
2021/12/15 06:35:58;;;;;;;162.07;63.92;;;;;;;;;;6219695;28;20153;-59
2021/12/15 06:39:01;;;;;;;158.05;62.55;;;;;;;;;;6218683;28;20074;-62
2021/12/15 06:42:02;;;;;;;189.23;59.85;;;;;;;;;;6217530;28;20133;-65
2021/12/15 06:45:04;;;;;;;168.88;58.13;;;;;;;;;;6204770;28;20869;-63
2021/12/15 07:01:05;;;;;;;164.40;63.97;;;;;;;;;;6214515;28;20073;-64
2021/12/15 07:04:06;;;;;;;162.93;61.25;;;;;;;;;;6220356;28;20486;-61
2021/12/15 07:07:07;;;;;;;170.48;62.92;;;;;;;;;;6217184;28;20057;-65
2021/12/15 07:10:10;;;;;;;157.95;61.33;;;;;;;;;;6218606;28;20053;-62
2021/12/15 07:13:11;;;;;;;156.13;61.63;;;;;;;;;;6216455;28;20104;-63
2021/12/15 07:16:12;;;;;;;156.03;61.93;;;;;;;;;;6212451;28;20144;-60
2021/12/15 07:19:20;;;;;;;164.82;62.25;;;;;;;;;;6210016;28;20434;-64
2021/12/15 07:25:43;;;;;;;137.30;52.88;;;;;;;;;;6219243;28;20050;-64
2021/12/15 07:28:44;;;;;;;132.93;52.88;;;;;;;;;;6206410;28;20064;-63
2021/12/15 07:31:44;;;;;;;136.20;50.47;;;;;;;;;;6203056;28;20499;-65
2021/12/15 07:34:45;;;;;;;121.88;48.70;;;;;;;;;;6205106;28;20046;-61
2021/12/15 07:37:46;;;;;;;122.95;45.80;;;;;;;;;;6203270;28;20052;-62
2021/12/15 07:40:47;;;;;;;125.70;48.42;;;;;;;;;;6205661;28;20136;-62
2021/12/15 07:43:47;;;;;;;129.23;46.65;;;;;;;;;;6207412;28;20061;-65
2021/12/15 07:46:50;;;;;;;123.35;47.97;;;;;;;;;;6205419;28;20050;-62
2021/12/15 07:49:51;;;;;;;119.47;48.85;;;;;;;;;;6205545;28;20050;-62
2021/12/15 07:52:52;;;;;;;132.88;53.65;;;;;;;;;;6202553;28;20042;-69
2021/12/15 07:55:54;;;;;;;131.63;51.05;;;;;;;;;;6207664;28;20054;-64
2021/12/15 07:58:55;;;;;;;151.75;56.75;;;;;;;;;;6210376;28;20061;-60
2021/12/15 08:01:55;;;;;;;142.43;57.38;;;;;;;;;;6199598;28;21027;-61
2021/12/15 08:04:56;;;;;;;152.65;58.05;;;;;;;;;;6203525;28;20057;-64
2021/12/15 08:07:57;;;;;;;149.15;55.55;;;;;;;;;;6201443;28;20050;-65
2021/12/15 08:10:58;;;;;;;142.35;52.70;;;;;;;;;;6213375;28;20046;-65
2021/12/15 08:14:00;;;;;;;162.82;51.63;;;;;;;;;;6207286;28;20584;-61
2021/12/15 08:17:01;;;;;;;130.37;52.20;;;;;;;;;;6206373;28;20133;-62
2021/12/15 08:20:05;;;;;;;139.85;53.60;;;;;;;;;;6203764;28;20060;-64
2021/12/15 08:23:06;;;;;;;150.07;54.70;;;;;;;;;;6201593;28;20321;-64
2021/12/15 08:26:07;;;;;;;142.30;53.58;;;;;;;;;;6209545;28;20048;-63
2021/12/15 08:29:07;;;;;;;154.85;57.30;;;;;;;;;;6206809;28;20078;-62
2021/12/15 08:32:09;;;;;;;155.93;55.60;;;;;;;;;;6206749;28;20061;-64
2021/12/15 08:35:10;;;;;;;163.70;56.72;;;;;;;;;;6207106;28;20054;-62
2021/12/15 08:38:12;;;;;;;150.75;56.60;;;;;;;;;;6205112;28;20574;-62
2021/12/15 08:41:20;;;;;;;167.90;60.22;;;;;;;;;;6205036;28;20081;-60
2021/12/15 08:44:21;;;;;;;166.57;60.30;;;;;;;;;;6205059;28;20042;-63
2021/12/15 08:47:22;;;;;;;165.98;63.40;;;;;;;;;;6205855;28;20080;-61
2021/12/15 08:50:29;;;;;;;157.88;61.35;;;;;;;;;;6199668;28;20506;-62
2021/12/15 08:53:30;;;;;;;159.07;60.58;;;;;;;;;;6205227;28;20137;-61
2021/12/15 08:56:32;;;;;;;155.52;53.95;;;;;;;;;;6200361;28;20763;-61
2021/12/15 08:59:32;;;;;;;148.88;52.88;;;;;;;;;;6206745;28;20057;-61
2021/12/15 09:02:35;;;;;;;144.65;53.03;;;;;;;;;;6201081;28;20483;-65
2021/12/15 09:05:36;;;;;;;140.32;54.03;;;;;;;;;;6211138;28;20048;-64
2021/12/15 09:08:37;;;;;;;144.00;56.75;;;;;;;;;;6209137;28;20046;-65
2021/12/15 09:11:37;;;;;;;143.68;53.40;;;;;;;;;;6205174;28;20050;-63
2021/12/15 09:14:38;;;;;;;185.07;78.57;;;;;;;;;;6205411;28;20056;-63
2021/12/15 09:17:39;;;;;;;184.55;72.68;;;;;;;;;;6203496;28;20440;-61
2021/12/15 09:20:43;;;;;;;203.82;80.45;;;;;;;;;;6208563;28;20057;-61
2021/12/15 09:23:45;;;;;;;155.52;58.10;;;;;;;;;;6201215;28;20041;-65
2021/12/15 09:26:46;;;;;;;153.43;57.30;;;;;;;;;;6217637;28;20054;-64
2021/12/15 09:29:47;;;;;;;154.75;60.63;;;;;;;;;;6211773;28;20083;-61
2021/12/15 09:32:48;;;;;;;146.23;59.72;;;;;;;;;;6211314;28;20049;-63
2021/12/15 09:35:50;;;;;;;141.90;54.38;;;;;;;;;;6213818;28;20125;-61
2021/12/15 09:38:56;;;;;;;126.28;49.83;;;;;;;;;;6198920;28;20046;-61
2021/12/15 09:41:59;;;;;;;122.75;46.47;;;;;;;;;;6203827;28;20072;-64
2021/12/15 09:45:18;;;;;;;132.43;47.58;;;;;;;;;;6202450;28;20398;-61
2021/12/15 10:02:07;;;;;;;124.38;49.13;;;;;;;;;;6193930;28;20132;-64
2021/12/15 10:05:42;;;;;;;130.18;50.92;;;;;;;;;;6203114;28;20057;-61
2021/12/15 10:18:45;;;;;;;144.23;49.20;;;;;;;;;;6208366;28;20048;-61
2021/12/15 10:22:29;;;;;;;134.38;49.22;;;;;;;;;;6203094;28;20472;-61
2021/12/15 10:25:45;;;;;;;129.95;52.63;;;;;;;;;;6206840;28;20437;-64
2021/12/15 10:28:49;;;;;;;139.73;52.45;;;;;;;;;;6203637;28;20052;-62
2021/12/15 10:32:02;;;;;;;140.93;52.92;;;;;;;;;;6205655;28;20037;-62
2021/12/15 10:35:06;;;;;;;144.07;52.55;;;;;;;;;;6208450;28;20073;-62
2021/12/15 10:38:19;;;;;;;136.93;51.25;;;;;;;;;;6207854;28;20482;-62
2021/12/15 10:41:25;;;;;;;146.95;52.15;;;;;;;;;;6207705;28;20484;-62
2021/12/15 10:44:26;;;;;;;142.07;52.47;;;;;;;;;;6210594;28;20160;-61
2021/12/15 10:47:27;;;;;;;144.20;54.50;;;;;;;;;;6209638;28;20076;-61
2021/12/15 10:50:28;;;;;;;139.27;52.70;;;;;;;;;;6207956;28;20050;-64
2021/12/15 10:53:34;;;;;;;146.75;53.00;;;;;;;;;;6212975;28;20136;-63
2021/12/15 10:56:40;;;;;;;158.48;63.45;;;;;;;;;;6216359;28;20052;-61
2021/12/15 10:59:41;;;;;;;138.68;50.42;;;;;;;;;;6217489;28;20092;-63
2021/12/15 11:02:41;;;;;;;131.70;51.17;;;;;;;;;;6208616;28;20046;-61
2021/12/15 11:05:42;;;;;;;130.02;49.05;;;;;;;;;;6205306;28;20074;-62
2021/12/15 11:08:43;;;;;;;136.32;52.83;;;;;;;;;;6207644;28;20050;-61
2021/12/15 11:12:13;;;;;;;127.82;48.17;;;;;;;;;;6203596;28;20136;-61
2021/12/15 11:15:22;;;;;;;123.72;47.40;;;;;;;;;;6203719;28;20068;-63
2021/12/15 11:18:28;;;;;;;122.97;45.30;;;;;;;;;;6210206;28;20769;-62
2021/12/15 11:21:31;;;;;;;124.22;46.85;;;;;;;;;;6207480;28;20054;-62
2021/12/15 11:24:35;;;;;;;122.18;45.95;;;;;;;;;;6207489;28;20054;-62
2021/12/15 11:27:38;;;;;;;125.75;43.85;;;;;;;;;;6206514;28;20064;-64
2021/12/15 11:30:44;;;;;;;;;;;;;;;;;;6208192;28;20085;-61
2021/12/15 11:33:53;;;;;;;132.75;51.05;;;;;;;;;;6203160;28;20012;-61
2021/12/15 11:36:54;;;;;;;135.60;52.03;;;;;;;;;;6208431;28;20048;-62
2021/12/15 11:40:04;;;;;;;140.32;51.42;;;;;;;;;;6210506;28;20515;-61
2021/12/15 11:43:06;;;;;;;146.73;52.50;;;;;;;;;;6207074;28;20046;-62
2021/12/15 11:46:14;;;;;;;;;;;;;;;;;;6202544;28;20049;-62
2021/12/15 11:49:19;;;;;;;129.40;49.65;;;;;;;;;;6205422;28;19979;-63
2021/12/15 11:52:19;;;;;;;132.93;50.85;;;;;;;;;;6207795;28;20046;-61
2021/12/15 11:55:29;;;;;;;159.43;64.50;;;;;;;;;;6203405;28;20113;-62
2021/12/15 11:58:33;;;;;;;136.48;52.55;;;;;;;;;;6202946;28;20041;-61
2021/12/15 12:02:03;;;;;;;145.23;55.90;;;;;;;;;;6206335;28;20050;-64
2021/12/15 12:05:22;;;;;;;137.15;55.92;;;;;;;;;;6199968;28;20109;-63
2021/12/15 12:08:23;;;;;;;131.55;49.25;;;;;;;;;;6196442;28;20042;-61
2021/12/15 12:11:25;;;;;;;132.15;48.53;;;;;;;;;;6207796;28;20050;-63
2021/12/15 12:14:38;;;;;;;;;;;;;;;;;;6207455;28;20054;-61
2021/12/15 12:17:42;;;;;;;134.60;49.13;;;;;;;;;;6202620;28;19921;-61
2021/12/15 12:20:48;;;;;;;142.05;48.97;;;;;;;;;;6203999;28;20042;-64
2021/12/15 12:23:49;;;;;;;141.25;52.35;;;;;;;;;;6206416;28;20612;-62
2021/12/15 12:26:51;;;;;;;135.00;52.00;;;;;;;;;;6204252;28;20053;-63
2021/12/15 12:29:54;;;;;;;135.38;50.13;;;;;;;;;;6205833;28;20593;-63
2021/12/15 12:32:56;;;;;;;139.07;51.72;;;;;;;;;;6207364;28;20050;-63
2021/12/15 12:36:08;;;;;;;137.25;51.42;;;;;;;;;;6201066;28;20078;-64
2021/12/15 12:39:11;;;;;;;125.20;46.78;;;;;;;;;;6208843;28;20054;-62
2021/12/15 12:42:31;;;;;;;126.55;46.25;;;;;;;;;;6212149;28;20056;-62
2021/12/15 12:45:37;;;;;;;112.40;43.80;;;;;;;;;;6205772;28;20080;-63
2021/12/15 13:02:48;;;;;;;134.38;50.28;;;;;;;;;;6186267;28;20491;-63
2021/12/15 13:05:56;;;;;;;122.63;47.58;;;;;;;;;;6207078;28;20116;-64
2021/12/15 13:09:02;;;;;;;117.97;52.67;;;;;;;;;;6210894;28;20081;-64
2021/12/15 13:12:22;;;;;;;103.75;41.55;;;;;;;;;;6212034;28;20074;-63
2021/12/15 13:15:23;;;;;;;107.55;43.25;;;;;;;;;;6202174;28;20097;-62
2021/12/15 13:18:25;;;;;;;105.72;40.45;;;;;;;;;;6199761;28;21195;-63
2021/12/15 13:22:18;;;;;;;112.57;41.85;;;;;;;;;;6206867;28;20538;-63
2021/12/15 13:28:48;;;;;;;105.13;41.03;;;;;;;;;;6214295;28;22268;-63
2021/12/15 13:31:59;;;;;;;98.38;37.95;;;;;;;;;;6189212;28;20046;-62
2021/12/15 13:35:00;;;;;;;117.35;41.35;;;;;;;;;;6205351;28;20096;-62
2021/12/15 13:38:02;;;;;;;114.30;43.05;;;;;;;;;;6201014;28;20081;-62
2021/12/15 13:41:14;;;;;;;103.13;38.85;;;;;;;;;;6203237;28;20050;-63
2021/12/15 13:44:40;;;;;;;107.90;41.42;;;;;;;;;;6207607;28;20054;-64
2021/12/15 13:47:44;;;;;;;109.55;39.70;;;;;;;;;;6205281;28;20145;-64
2021/12/15 13:50:44;;;;;;;109.60;38.63;;;;;;;;;;6212254;28;20049;-63
2021/12/15 13:53:45;;;;;;;102.38;37.88;;;;;;;;;;6212886;28;20058;-64
2021/12/15 13:56:51;;;;;;;99.05;38.13;;;;;;;;;;6208222;28;20048;-65
2021/12/15 14:00:18;;;;;;;101.82;36.42;;;;;;;;;;6200690;28;20092;-64
2021/12/15 14:03:41;;;;;;;90.22;36.22;;;;;;;;;;6211558;28;20050;-64
2021/12/15 14:06:42;;;;;;;105.78;37.15;;;;;;;;;;6206109;28;20136;-65
2021/12/15 14:09:43;;;;;;;95.70;34.95;;;;;;;;;;6205641;28;20476;-65
2021/12/15 14:12:49;;;;;;;98.85;35.72;;;;;;;;;;6214188;28;20417;-64
2021/12/15 14:15:52;;;;;;;89.47;36.95;;;;;;;;;;6209516;28;20107;-61
2021/12/15 14:18:52;;;;;;;87.95;32.50;;;;;;;;;;6206681;28;20490;-61
2021/12/15 14:21:57;;;;;;;84.47;34.00;;;;;;;;;;6204707;28;20053;-64
2021/12/15 14:25:02;;;;;;;88.72;34.08;;;;;;;;;;6210029;28;20100;-63
2021/12/15 14:28:12;;;;;;;84.32;33.38;;;;;;;;;;6206645;28;20047;-61
2021/12/15 14:31:25;;;;;;;78.50;32.72;;;;;;;;;;6205988;28;20075;-63
2021/12/15 14:34:35;;;;;;;87.93;32.25;;;;;;;;;;6201909;28;20096;-63
2021/12/15 14:37:39;;;;;;;90.82;33.90;;;;;;;;;;6215301;28;20124;-63
2021/12/15 14:40:39;;;;;;;88.88;35.05;;;;;;;;;;6216630;28;20069;-62
2021/12/15 14:43:41;;;;;;;80.85;31.90;;;;;;;;;;6215846;28;20100;-61
2021/12/15 14:46:50;;;;;;;95.55;37.55;;;;;;;;;;6219189;28;20049;-65
2021/12/15 14:49:52;;;;;;;89.20;34.97;;;;;;;;;;6220066;28;20397;-64
2021/12/15 14:52:56;;;;;;;72.47;28.63;;;;;;;;;;6206662;28;20157;-64
2021/12/15 14:55:56;;;;;;;80.47;30.20;;;;;;;;;;6210754;28;20134;-62
2021/12/15 14:58:57;;;;;;;74.85;29.38;;;;;;;;;;6216639;28;20525;-64
2021/12/15 15:02:07;;;;;;;78.10;32.97;;;;;;;;;;6206226;28;20137;-60
2021/12/15 15:05:15;;;;;;;81.90;31.30;;;;;;;;;;6203535;28;20393;-62
2021/12/15 15:08:25;;;;;;;77.97;30.10;;;;;;;;;;6200148;28;20180;-61
2021/12/15 15:11:27;;;;;;;69.82;26.90;;;;;;;;;;6201048;28;20736;-63
2021/12/15 15:14:36;;;;;;;74.50;29.27;;;;;;;;;;6198749;28;20058;-62
2021/12/15 15:17:52;;;;;;;95.45;37.03;;;;;;;;;;6208335;28;20068;-60
2021/12/15 15:21:03;;;;;;;94.93;38.25;;;;;;;;;;6201595;28;20069;-61
2021/12/15 15:24:04;;;;;;;97.57;40.60;;;;;;;;;;6199899;28;20120;-62
2021/12/15 15:27:06;;;;;;;104.43;40.25;;;;;;;;;;6201659;28;20058;-60
2021/12/15 15:30:12;;;;;;;90.00;34.00;;;;;;;;;;6201145;28;20073;-61
2021/12/15 15:33:18;;;;;;;91.00;35.67;;;;;;;;;;6198525;28;20081;-61
2021/12/15 15:36:27;;;;;;;80.95;31.95;;;;;;;;;;6202603;28;21062;-63
2021/12/15 15:39:28;;;;;;;85.13;32.20;;;;;;;;;;6201598;28;20441;-60
2021/12/15 15:42:29;;;;;;;70.82;29.05;;;;;;;;;;6201969;28;20053;-63
2021/12/15 15:45:40;;;;;;;64.28;24.98;;;;;;;;;;6200891;28;20061;-63
2021/12/15 15:48:42;;;;;;;71.78;28.05;;;;;;;;;;6200082;28;20037;-63
2021/12/15 15:51:44;;;;;;;105.15;44.10;;;;;;;;;;6201653;28;20050;-62
2021/12/15 15:54:45;;;;;;;69.07;34.28;;;;;;;;;;6200139;28;20084;-61
2021/12/15 15:57:54;;;;;;;56.70;26.63;;;;;;;;;;6201195;28;20041;-63
2021/12/15 16:00:58;;;;;;;65.22;33.90;;;;;;;;;;6200030;28;20058;-62
2021/12/15 16:04:02;;;;;;;52.08;24.50;;;;;;;;;;6200202;28;20056;-62
2021/12/15 16:07:05;;;;;;;58.58;25.88;;;;;;;;;;6201945;28;20172;-63
2021/12/15 16:10:08;;;;;;;56.05;23.95;;;;;;;;;;6197841;28;20111;-61
2021/12/15 16:13:12;;;;;;;54.05;22.30;;;;;;;;;;6198184;28;20152;-63
2021/12/15 16:16:19;;;;;;;45.92;22.33;;;;;;;;;;6202587;28;20065;-60
2021/12/15 16:19:29;;;;;;;51.40;23.00;;;;;;;;;;6198577;28;20042;-60
2021/12/15 16:25:52;;;;;;;57.67;25.30;;;;;;;;;;6199025;28;20148;-60
2021/12/15 16:28:53;;;;;;;54.47;24.35;;;;;;;;;;6198131;28;20504;-62
2021/12/15 16:32:09;;;;;;;54.75;25.67;;;;;;;;;;6197838;28;20095;-62
2021/12/15 16:35:22;;;;;;;52.47;24.83;;;;;;;;;;6198446;28;20452;-62
2021/12/15 16:38:34;;;;;;;55.28;24.10;;;;;;;;;;6200416;28;20112;-59
2021/12/15 16:41:35;;;;;;;;;;;;;;;;;;6206518;28;20058;-59
2021/12/15 16:44:47;;;;;;;61.78;32.28;;;;;;;;;;6206782;28;20323;-62
2021/12/15 16:47:49;;;;;;;61.90;30.80;;;;;;;;;;6207467;28;20057;-60
2021/12/15 16:51:01;;;;;;;54.58;26.48;;;;;;;;;;6207531;28;20073;-62
2021/12/15 16:54:08;;;;;;;56.38;27.45;;;;;;;;;;6205661;28;20911;-63
2021/12/15 16:57:12;;;;;;;57.08;23.60;;;;;;;;;;6207031;28;20601;-61
2021/12/15 17:00:16;;;;;;;49.10;23.33;;;;;;;;;;6207367;28;20057;-60
2021/12/15 17:03:17;;;;;;;50.05;23.75;;;;;;;;;;6205145;28;20158;-62
2021/12/15 17:06:23;;;;;;;56.05;23.25;;;;;;;;;;6205092;28;20046;-60
2021/12/15 17:09:37;;;;;;;47.50;22.08;;;;;;;;;;6207835;28;20107;-60
2021/12/15 17:12:41;;;;;;;54.55;23.58;;;;;;;;;;6204292;28;20050;-60
2021/12/15 17:15:56;;;;;;;49.05;23.38;;;;;;;;;;6204005;28;20041;-62
2021/12/15 17:18:57;;;;;;;58.72;23.38;;;;;;;;;;6206300;28;20062;-61
2021/12/15 17:22:10;;;;;;;57.95;23.95;;;;;;;;;;6206943;28;20216;-60
2021/12/15 17:25:15;;;;;;;52.85;23.45;;;;;;;;;;6213110;28;20099;-62
2021/12/15 17:28:23;;;;;;;55.85;25.85;;;;;;;;;;6209221;28;20053;-61
2021/12/15 17:31:31;;;;;;;57.92;27.20;;;;;;;;;;6211112;28;20459;-61
2021/12/15 17:34:35;;;;;;;60.55;26.58;;;;;;;;;;6213487;28;20109;-62
2021/12/15 17:37:36;;;;;;;59.10;29.33;;;;;;;;;;6211284;28;20077;-62
2021/12/15 17:40:37;;;;;;;63.60;27.95;;;;;;;;;;6212202;28;20077;-61
2021/12/15 17:43:40;;;;;;;57.78;28.23;;;;;;;;;;6211248;28;20062;-61
2021/12/15 17:46:44;;;;;;;58.97;27.17;;;;;;;;;;6207857;28;20041;-62
2021/12/15 17:49:48;;;;;;;66.85;28.95;;;;;;;;;;6210003;28;20401;-62
2021/12/15 17:53:16;;;;;;;63.28;28.63;;;;;;;;;;6210201;28;20230;-61
2021/12/15 17:56:17;;;;;;;65.28;27.73;;;;;;;;;;6210269;28;20513;-62
2021/12/15 17:59:19;;;;;;;56.83;26.58;;;;;;;;;;6210723;28;20141;-60
2021/12/15 18:02:22;;;;;;;60.15;28.48;;;;;;;;;;6207848;28;20485;-61
2021/12/15 18:05:23;;;;;;;61.05;29.55;;;;;;;;;;6210154;28;20054;-61
2021/12/15 18:08:24;;;;;;;73.43;33.35;;;;;;;;;;6210724;28;20064;-59
2021/12/15 18:11:25;;;;;;;74.90;36.58;;;;;;;;;;6208718;28;20165;-63
2021/12/15 18:14:27;;;;;;;68.50;33.35;;;;;;;;;;6209977;28;20054;-60
2021/12/15 18:17:28;;;;;;;60.95;28.17;;;;;;;;;;6208511;28;20168;-61
2021/12/15 18:20:29;;;;;;;56.63;26.77;;;;;;;;;;6209909;28;20072;-62
2021/12/15 18:23:30;;;;;;;60.60;27.83;;;;;;;;;;6207805;28;20569;-60
2021/12/15 18:26:32;;;;;;;60.13;27.95;;;;;;;;;;6209973;28;20095;-62
2021/12/15 18:29:37;;;;;;;61.08;28.27;;;;;;;;;;6209243;28;20068;-62
2021/12/15 18:32:37;;;;;;;64.32;28.38;;;;;;;;;;6207543;28;20573;-60
2021/12/15 18:35:39;;;;;;;61.42;29.27;;;;;;;;;;6210400;28;20054;-60
2021/12/15 18:38:41;;;;;;;81.07;36.60;;;;;;;;;;6209391;28;20068;-61
2021/12/15 18:41:43;;;;;;;68.15;31.45;;;;;;;;;;6203144;28;20506;-61
2021/12/15 18:44:44;;;;;;;69.22;33.92;;;;;;;;;;6207305;28;20053;-61
2021/12/15 18:47:45;;;;;;;65.10;32.47;;;;;;;;;;6209428;28;20058;-61
2021/12/15 18:50:55;;;;;;;75.28;39.20;;;;;;;;;;6209270;28;20072;-61
2021/12/15 18:53:57;;;;;;;76.72;37.67;;;;;;;;;;6207853;28;20053;-61
2021/12/15 18:56:59;;;;;;;65.15;32.53;;;;;;;;;;6208828;28;20073;-61
2021/12/15 19:00:08;;;;;;;71.55;32.42;;;;;;;;;;6224342;28;20157;-61
2021/12/15 19:03:12;;;;;;;73.70;34.13;;;;;;;;;;6204944;28;20050;-61
2021/12/15 19:06:13;;;;;;;73.50;33.97;;;;;;;;;;6208510;28;20041;-61
2021/12/15 19:09:16;;;;;;;80.38;35.97;;;;;;;;;;6208351;28;20065;-61
2021/12/15 19:12:19;;;;;;;79.13;36.33;;;;;;;;;;6205875;28;20176;-61
2021/12/15 19:15:19;;;;;;;;;;;;;;;;;;6209348;28;20049;-59